createdAt,value
2018-08-30T00:00:25.080Z,19.73
2018-08-30T00:01:25.004Z,19.74
2018-08-30T00:02:24.917Z,19.73
2018-08-30T00:03:24.844Z,19.68
2018-08-30T00:04:24.775Z,19.69
2018-08-30T00:05:24.679Z,19.66
2018-08-30T00:06:24.606Z,19.61
2018-08-30T00:07:24.534Z,19.63
2018-08-30T00:08:24.447Z,19.61
2018-08-30T00:09:24.375Z,19.50
2018-08-30T00:10:24.310Z,19.41
2018-08-30T00:11:24.213Z,19.46
2018-08-30T00:12:24.131Z,19.39
2018-08-30T00:13:24.059Z,19.43
2018-08-30T00:14:23.984Z,19.43
2018-08-30T00:15:23.892Z,19.41
2018-08-30T00:16:23.817Z,19.40
2018-08-30T00:17:23.743Z,19.31
2018-08-30T00:18:23.657Z,19.41
2018-08-30T00:19:23.586Z,19.33
2018-08-30T00:20:23.512Z,19.29
2018-08-30T00:21:23.432Z,19.31
2018-08-30T00:22:23.402Z,19.36
2018-08-30T00:23:23.272Z,19.19
2018-08-30T00:24:23.188Z,19.28
2018-08-30T00:25:23.111Z,19.25
2018-08-30T00:26:23.037Z,19.21
2018-08-30T00:27:22.962Z,19.19
2018-08-30T00:28:22.870Z,19.19
2018-08-30T00:29:22.798Z,19.16
2018-08-30T00:30:22.712Z,19.18
2018-08-30T00:31:22.632Z,19.11
2018-08-30T00:32:22.557Z,19.14
2018-08-30T00:33:22.471Z,19.08
2018-08-30T00:34:22.396Z,19.02
2018-08-30T00:35:22.325Z,18.99
2018-08-30T00:36:22.239Z,19.04
2018-08-30T00:37:22.158Z,19.02
2018-08-30T00:38:22.084Z,18.87
2018-08-30T00:39:22.000Z,18.81
2018-08-30T00:40:21.927Z,18.85
2018-08-30T00:41:21.869Z,18.91
2018-08-30T00:42:21.761Z,18.88
2018-08-30T00:43:21.684Z,18.85
2018-08-30T00:44:21.611Z,18.78
2018-08-30T00:45:21.527Z,18.78
2018-08-30T00:46:21.451Z,18.75
2018-08-30T00:47:21.395Z,18.78
2018-08-30T00:48:21.285Z,18.78
2018-08-30T00:49:21.208Z,18.70
2018-08-30T00:50:21.133Z,18.63
2018-08-30T00:51:21.049Z,18.72
2018-08-30T00:52:20.987Z,18.67
2018-08-30T00:53:20.895Z,18.76
2018-08-30T00:54:20.809Z,18.69
2018-08-30T00:55:20.738Z,18.67
2018-08-30T00:56:20.651Z,18.65
2018-08-30T00:57:20.590Z,18.69
2018-08-30T00:58:20.502Z,18.63
2018-08-30T00:59:20.411Z,18.65
2018-08-30T01:00:20.336Z,18.47
2018-08-30T01:01:20.264Z,18.55
2018-08-30T01:02:20.181Z,18.67
2018-08-30T01:03:20.099Z,18.60
2018-08-30T01:04:20.027Z,18.52
2018-08-30T01:05:19.949Z,18.55
2018-08-30T01:06:19.864Z,18.48
2018-08-30T01:07:19.791Z,18.44
2018-08-30T01:08:19.703Z,18.48
2018-08-30T01:09:19.625Z,18.48
2018-08-30T01:10:19.549Z,18.44
2018-08-30T01:11:19.467Z,18.51
2018-08-30T01:12:19.392Z,18.50
2018-08-30T01:13:19.306Z,18.57
2018-08-30T01:14:19.227Z,18.52
2018-08-30T01:15:19.150Z,18.52
2018-08-30T01:16:19.062Z,18.50
2018-08-30T01:17:18.997Z,18.51
2018-08-30T01:18:18.917Z,18.50
2018-08-30T01:19:18.827Z,18.63
2018-08-30T01:20:18.750Z,18.65
2018-08-30T01:21:18.688Z,18.57
2018-08-30T01:22:18.586Z,18.62
2018-08-30T01:23:18.516Z,18.57
2018-08-30T01:24:18.441Z,18.65
2018-08-30T01:25:18.352Z,18.55
2018-08-30T01:26:18.291Z,18.63
2018-08-30T01:27:18.187Z,18.52
2018-08-30T01:28:18.113Z,18.63
2018-08-30T01:29:18.040Z,18.65
2018-08-30T01:30:17.951Z,18.60
2018-08-30T01:31:17.882Z,18.58
2018-08-30T01:32:17.794Z,18.57
2018-08-30T01:33:17.712Z,18.52
2018-08-30T01:34:17.638Z,18.50
2018-08-30T01:35:17.556Z,18.51
2018-08-30T01:36:17.479Z,18.47
2018-08-30T01:37:17.406Z,18.51
2018-08-30T01:38:17.320Z,18.47
2018-08-30T01:39:17.240Z,18.48
2018-08-30T01:40:17.154Z,18.47
2018-08-30T01:41:17.086Z,18.39
2018-08-30T01:42:17.007Z,18.44
2018-08-30T01:43:16.917Z,18.45
2018-08-30T01:44:16.844Z,18.51
2018-08-30T01:45:16.767Z,18.41
2018-08-30T01:46:16.676Z,18.41
2018-08-30T01:47:16.605Z,18.37
2018-08-30T01:48:16.530Z,18.36
2018-08-30T01:49:16.442Z,18.35
2018-08-30T01:50:16.366Z,18.44
2018-08-30T01:51:16.283Z,18.47
2018-08-30T01:52:16.208Z,18.52
2018-08-30T01:53:16.131Z,18.55
2018-08-30T01:54:16.044Z,18.55
2018-08-30T01:55:15.965Z,18.60
2018-08-30T01:56:15.891Z,18.52
2018-08-30T01:57:15.807Z,18.62
2018-08-30T01:58:15.732Z,18.51
2018-08-30T01:59:15.641Z,18.54
2018-08-30T02:00:15.574Z,18.47
2018-08-30T02:01:15.493Z,18.44
2018-08-30T02:02:15.405Z,18.37
2018-08-30T02:03:15.335Z,18.35
2018-08-30T02:04:15.260Z,18.41
2018-08-30T02:05:15.167Z,18.39
2018-08-30T02:06:15.091Z,18.32
2018-08-30T02:07:15.008Z,18.35
2018-08-30T02:08:14.933Z,18.39
2018-08-30T02:09:14.860Z,18.35
2018-08-30T02:10:14.777Z,18.33
2018-08-30T02:11:14.695Z,18.37
2018-08-30T02:12:14.619Z,18.29
2018-08-30T02:13:14.535Z,18.23
2018-08-30T02:14:14.461Z,18.25
2018-08-30T02:15:14.370Z,18.21
2018-08-30T02:16:14.297Z,18.20
2018-08-30T02:17:14.219Z,18.20
2018-08-30T02:18:14.130Z,18.21
2018-08-30T02:19:14.059Z,18.25
2018-08-30T02:20:13.984Z,18.25
2018-08-30T02:21:13.895Z,18.14
2018-08-30T02:22:13.821Z,18.15
2018-08-30T02:23:13.736Z,18.07
2018-08-30T02:24:13.662Z,18.11
2018-08-30T02:25:13.584Z,18.07
2018-08-30T02:26:13.499Z,18.07
2018-08-30T02:27:13.422Z,17.93
2018-08-30T02:28:13.350Z,17.96
2018-08-30T02:29:13.263Z,17.99
2018-08-30T02:30:13.188Z,17.96
2018-08-30T02:31:13.097Z,18.02
2018-08-30T02:32:13.022Z,18.02
2018-08-30T02:33:12.951Z,17.97
2018-08-30T02:34:12.856Z,17.97
2018-08-30T02:35:12.786Z,17.92
2018-08-30T02:36:12.700Z,18.00
2018-08-30T02:37:12.622Z,17.96
2018-08-30T02:38:12.548Z,17.93
2018-08-30T02:39:12.463Z,17.93
2018-08-30T02:40:12.389Z,17.95
2018-08-30T02:41:12.312Z,17.96
2018-08-30T02:42:12.224Z,17.89
2018-08-30T02:43:12.148Z,17.89
2018-08-30T02:44:12.060Z,17.95
2018-08-30T02:45:11.987Z,17.90
2018-08-30T02:46:11.912Z,17.84
2018-08-30T02:47:11.822Z,17.87
2018-08-30T02:48:11.746Z,17.86
2018-08-30T02:49:11.857Z,17.86
2018-08-30T02:50:11.586Z,17.81
2018-08-30T02:51:11.515Z,17.75
2018-08-30T02:52:11.428Z,17.70
2018-08-30T02:53:11.347Z,17.71
2018-08-30T02:54:11.264Z,17.70
2018-08-30T02:55:11.188Z,17.70
2018-08-30T02:56:11.113Z,17.64
2018-08-30T02:57:11.029Z,17.66
2018-08-30T02:58:10.955Z,17.63
2018-08-30T02:59:10.863Z,17.64
2018-08-30T03:00:10.796Z,17.59
2018-08-30T03:01:10.716Z,17.70
2018-08-30T03:02:10.629Z,17.66
2018-08-30T03:03:10.550Z,17.66
2018-08-30T03:04:10.464Z,17.68
2018-08-30T03:05:10.385Z,17.64
2018-08-30T03:06:10.310Z,17.62
2018-08-30T03:07:10.239Z,17.63
2018-08-30T03:08:10.153Z,17.68
2018-08-30T03:09:10.079Z,17.66
2018-08-30T03:10:09.991Z,17.66
2018-08-30T03:11:09.920Z,17.70
2018-08-30T03:12:09.834Z,17.66
2018-08-30T03:13:09.758Z,17.55
2018-08-30T03:14:09.683Z,17.52
2018-08-30T03:15:09.591Z,17.58
2018-08-30T03:16:09.516Z,17.58
2018-08-30T03:17:09.433Z,17.52
2018-08-30T03:18:09.364Z,17.54
2018-08-30T03:19:09.289Z,17.49
2018-08-30T03:20:09.208Z,17.55
2018-08-30T03:21:09.139Z,17.54
2018-08-30T03:22:09.051Z,17.55
2018-08-30T03:23:08.967Z,17.66
2018-08-30T03:24:08.890Z,17.70
2018-08-30T03:25:08.801Z,17.63
2018-08-30T03:26:08.726Z,17.59
2018-08-30T03:27:08.640Z,17.62
2018-08-30T03:28:08.564Z,17.64
2018-08-30T03:29:08.490Z,17.68
2018-08-30T03:30:08.467Z,17.55
2018-08-30T03:31:08.353Z,17.51
2018-08-30T03:32:08.252Z,17.55
2018-08-30T03:33:08.165Z,17.46
2018-08-30T03:34:08.091Z,17.54
2018-08-30T03:35:08.006Z,17.51
2018-08-30T03:36:07.934Z,17.54
2018-08-30T03:37:07.865Z,17.49
2018-08-30T03:38:07.766Z,17.44
2018-08-30T03:39:07.691Z,17.44
2018-08-30T03:40:07.612Z,17.46
2018-08-30T03:41:07.528Z,17.49
2018-08-30T03:42:07.453Z,17.51
2018-08-30T03:43:07.366Z,17.54
2018-08-30T03:44:07.294Z,17.54
2018-08-30T03:45:07.204Z,17.62
2018-08-30T03:46:07.128Z,17.59
2018-08-30T03:47:07.113Z,17.56
2018-08-30T03:48:06.967Z,17.52
2018-08-30T03:49:06.892Z,17.51
2018-08-30T03:50:06.816Z,17.63
2018-08-30T03:51:06.729Z,17.64
2018-08-30T03:52:06.656Z,17.62
2018-08-30T03:53:06.567Z,17.70
2018-08-30T03:54:06.493Z,17.64
2018-08-30T03:55:06.462Z,17.66
2018-08-30T03:56:06.329Z,17.66
2018-08-30T03:57:06.254Z,17.68
2018-08-30T03:58:06.167Z,17.64
2018-08-30T03:59:06.093Z,17.72
2018-08-30T04:00:06.017Z,17.82
2018-08-30T04:01:05.932Z,17.84
2018-08-30T04:02:05.858Z,17.84
2018-08-30T04:03:05.770Z,17.86
2018-08-30T04:04:05.750Z,17.86
2018-08-30T04:05:05.619Z,17.82
2018-08-30T04:06:05.530Z,17.89
2018-08-30T04:07:05.460Z,17.86
2018-08-30T04:08:05.380Z,17.89
2018-08-30T04:09:05.294Z,17.89
2018-08-30T04:10:05.220Z,17.90
2018-08-30T04:11:05.130Z,17.93
2018-08-30T04:12:05.056Z,17.90
2018-08-30T04:13:04.983Z,17.97
2018-08-30T04:14:04.894Z,17.87
2018-08-30T04:15:04.827Z,17.87
2018-08-30T04:16:04.732Z,17.96
2018-08-30T04:17:04.657Z,17.92
2018-08-30T04:18:04.587Z,17.86
2018-08-30T04:19:04.495Z,17.90
2018-08-30T04:20:04.419Z,17.92
2018-08-30T04:21:04.346Z,17.92
2018-08-30T04:22:04.348Z,17.92
2018-08-30T04:23:04.182Z,17.92
2018-08-30T04:24:04.096Z,17.92
2018-08-30T04:25:04.021Z,17.97
2018-08-30T04:26:03.946Z,17.92
2018-08-30T04:27:03.886Z,17.92
2018-08-30T04:28:03.783Z,17.95
2018-08-30T04:29:03.696Z,17.93
2018-08-30T04:30:03.621Z,17.96
2018-08-30T04:31:03.546Z,17.87
2018-08-30T04:32:03.460Z,17.93
2018-08-30T04:33:03.384Z,17.92
2018-08-30T04:34:03.308Z,18.02
2018-08-30T04:35:03.222Z,17.96
2018-08-30T04:36:03.143Z,17.93
2018-08-30T04:37:03.051Z,17.95
2018-08-30T04:38:02.975Z,17.97
2018-08-30T04:39:02.897Z,17.93
2018-08-30T04:40:02.810Z,17.97
2018-08-30T04:41:02.733Z,18.02
2018-08-30T04:42:02.663Z,18.02
2018-08-30T04:43:02.574Z,17.99
2018-08-30T04:44:02.499Z,18.03
2018-08-30T04:45:02.411Z,18.07
2018-08-30T04:46:02.335Z,17.96
2018-08-30T04:47:02.265Z,17.93
2018-08-30T04:48:02.178Z,17.99
2018-08-30T04:49:02.100Z,17.97
2018-08-30T04:50:02.037Z,18.03
2018-08-30T04:51:01.934Z,17.97
2018-08-30T04:52:01.860Z,17.96
2018-08-30T04:53:01.788Z,17.97
2018-08-30T04:54:01.700Z,18.07
2018-08-30T04:55:01.621Z,18.12
2018-08-30T04:56:01.535Z,18.02
2018-08-30T04:57:01.462Z,18.15
2018-08-30T04:58:01.391Z,18.25
2018-08-30T04:59:01.303Z,18.20
2018-08-30T05:00:01.229Z,18.21
2018-08-30T05:01:01.137Z,18.27
2018-08-30T05:02:01.061Z,18.14
2018-08-30T05:03:00.989Z,18.17
2018-08-30T05:04:00.901Z,18.17
2018-08-30T05:05:00.830Z,18.14
2018-08-30T05:06:00.753Z,18.07
2018-08-30T05:07:00.663Z,17.92
2018-08-30T05:08:00.588Z,18.02
2018-08-30T05:09:00.505Z,17.90
2018-08-30T05:10:00.505Z,17.90
2018-08-30T05:11:00.350Z,17.86
2018-08-30T05:12:00.264Z,17.95
2018-08-30T05:13:00.187Z,17.89
2018-08-30T05:14:00.099Z,17.92
2018-08-30T05:15:00.028Z,17.95
2018-08-30T05:15:59.953Z,17.93
2018-08-30T05:16:59.865Z,17.87
2018-08-30T05:17:59.789Z,17.81
2018-08-30T05:18:59.706Z,17.71
2018-08-30T05:19:59.630Z,17.66
2018-08-30T05:20:59.555Z,17.63
2018-08-30T05:21:59.467Z,17.62
2018-08-30T05:22:59.397Z,17.72
2018-08-30T05:23:59.301Z,17.64
2018-08-30T05:24:59.229Z,17.56
2018-08-30T05:25:59.154Z,17.63
2018-08-30T05:26:59.064Z,17.66
2018-08-30T05:27:58.989Z,17.62
2018-08-30T05:28:58.903Z,17.59
2018-08-30T05:29:58.909Z,17.62
2018-08-30T05:30:58.757Z,17.68
2018-08-30T05:31:58.674Z,17.74
2018-08-30T05:32:58.591Z,17.77
2018-08-30T05:33:58.504Z,17.87
2018-08-30T05:34:58.431Z,17.82
2018-08-30T05:35:58.356Z,17.86
2018-08-30T05:36:58.271Z,17.87
2018-08-30T05:37:58.205Z,17.95
2018-08-30T05:38:58.104Z,17.96
2018-08-30T05:39:58.028Z,17.90
2018-08-30T05:40:57.953Z,17.93
2018-08-30T05:41:57.868Z,17.90
2018-08-30T05:42:57.801Z,17.96
2018-08-30T05:43:57.709Z,17.97
2018-08-30T05:44:57.635Z,17.99
2018-08-30T05:45:57.556Z,17.99
2018-08-30T05:46:57.467Z,18.00
2018-08-30T05:47:57.392Z,17.99
2018-08-30T05:48:57.311Z,18.00
2018-08-30T05:49:57.235Z,18.00
2018-08-30T05:50:57.154Z,17.99
2018-08-30T05:51:57.068Z,17.97
2018-08-30T05:52:56.991Z,17.90
2018-08-30T05:53:56.916Z,17.93
2018-08-30T05:54:56.833Z,17.93
2018-08-30T05:55:56.758Z,18.00
2018-08-30T05:56:56.749Z,17.99
2018-08-30T05:57:56.592Z,17.99
2018-08-30T05:58:56.521Z,18.05
2018-08-30T05:59:56.433Z,18.07
2018-08-30T06:00:56.360Z,18.07
2018-08-30T06:01:56.285Z,18.08
2018-08-30T06:02:56.195Z,18.21
2018-08-30T06:03:56.120Z,18.21
2018-08-30T06:04:56.034Z,18.18
2018-08-30T06:05:55.958Z,18.17
2018-08-30T06:06:55.880Z,18.20
2018-08-30T06:07:55.793Z,18.23
2018-08-30T06:08:55.720Z,18.20
2018-08-30T06:09:55.647Z,18.32
2018-08-30T06:10:55.562Z,18.21
2018-08-30T06:11:55.486Z,18.17
2018-08-30T06:12:55.405Z,18.27
2018-08-30T06:13:55.323Z,18.33
2018-08-30T06:14:55.250Z,18.35
2018-08-30T06:15:55.162Z,18.45
2018-08-30T06:16:55.087Z,18.50
2018-08-30T06:17:55.010Z,18.51
2018-08-30T06:18:54.919Z,18.60
2018-08-30T06:19:54.844Z,18.58
2018-08-30T06:20:54.775Z,18.55
2018-08-30T06:21:54.688Z,18.67
2018-08-30T06:22:54.609Z,18.70
2018-08-30T06:23:54.522Z,18.65
2018-08-30T06:24:54.444Z,18.70
2018-08-30T06:25:54.370Z,18.65
2018-08-30T06:26:54.302Z,18.73
2018-08-30T06:27:54.211Z,18.80
2018-08-30T06:28:54.146Z,18.80
2018-08-30T06:29:54.045Z,18.88
2018-08-30T06:30:53.974Z,18.88
2018-08-30T06:31:53.900Z,19.04
2018-08-30T06:32:53.822Z,19.10
2018-08-30T06:33:53.751Z,19.10
2018-08-30T06:34:53.648Z,19.19
2018-08-30T06:35:53.576Z,19.25
2018-08-30T06:36:53.500Z,19.22
2018-08-30T06:37:53.413Z,19.23
2018-08-30T06:38:53.345Z,19.26
2018-08-30T06:39:53.257Z,19.32
2018-08-30T06:40:53.185Z,19.47
2018-08-30T06:41:53.098Z,19.36
2018-08-30T06:42:53.027Z,19.48
2018-08-30T06:43:52.953Z,19.44
2018-08-30T06:44:52.862Z,19.54
2018-08-30T06:45:52.783Z,19.41
2018-08-30T06:46:52.713Z,19.54
2018-08-30T06:47:52.625Z,19.56
2018-08-30T06:48:52.581Z,19.56
2018-08-30T06:49:52.478Z,19.65
2018-08-30T06:50:52.389Z,19.71
2018-08-30T06:51:52.312Z,19.74
2018-08-30T06:52:52.238Z,19.74
2018-08-30T06:53:52.164Z,19.74
2018-08-30T06:54:52.073Z,19.76
2018-08-30T06:55:51.998Z,19.68
2018-08-30T06:56:51.925Z,19.62
2018-08-30T06:57:51.839Z,19.56
2018-08-30T06:58:51.767Z,19.41
2018-08-30T06:59:51.691Z,19.40
2018-08-30T07:00:51.601Z,19.36
2018-08-30T07:01:51.530Z,19.32
2018-08-30T07:02:51.456Z,19.28
2018-08-30T07:03:51.368Z,19.28
2018-08-30T07:04:51.289Z,19.08
2018-08-30T07:05:51.214Z,19.19
2018-08-30T07:06:51.139Z,19.07
2018-08-30T07:07:51.051Z,19.02
2018-08-30T07:08:50.981Z,18.94
2018-08-30T07:09:50.906Z,18.92
2018-08-30T07:10:50.814Z,18.85
2018-08-30T07:11:50.738Z,18.78
2018-08-30T07:12:50.666Z,18.80
2018-08-30T07:13:50.575Z,18.70
2018-08-30T07:14:50.544Z,18.72
2018-08-30T07:15:50.429Z,18.69
2018-08-30T07:16:50.338Z,18.70
2018-08-30T07:17:50.262Z,18.66
2018-08-30T07:18:50.192Z,18.58
2018-08-30T07:19:50.105Z,18.66
2018-08-30T07:20:50.032Z,18.65
2018-08-30T07:21:49.957Z,18.57
2018-08-30T07:22:49.865Z,18.62
2018-08-30T07:23:49.789Z,18.52
2018-08-30T07:24:49.735Z,18.66
2018-08-30T07:25:49.631Z,18.58
2018-08-30T07:26:49.556Z,18.69
2018-08-30T07:27:49.476Z,18.63
2018-08-30T07:28:49.393Z,18.66
2018-08-30T07:29:49.316Z,18.65
2018-08-30T07:30:49.245Z,18.60
2018-08-30T07:31:49.159Z,18.66
2018-08-30T07:32:49.079Z,18.62
2018-08-30T07:33:49.004Z,18.63
2018-08-30T07:34:49.093Z,18.69
2018-08-30T07:35:48.850Z,18.54
2018-08-30T07:36:48.772Z,18.58
2018-08-30T07:37:48.681Z,18.66
2018-08-30T07:38:48.602Z,18.66
2018-08-30T07:39:48.528Z,18.69
2018-08-30T07:40:48.460Z,18.67
2018-08-30T07:41:48.371Z,18.69
2018-08-30T07:42:48.295Z,18.73
2018-08-30T07:43:48.217Z,18.78
2018-08-30T07:44:48.129Z,18.78
2018-08-30T07:45:48.054Z,18.80
2018-08-30T07:46:47.970Z,18.67
2018-08-30T07:47:47.895Z,18.62
2018-08-30T07:48:47.820Z,18.70
2018-08-30T07:49:47.734Z,18.67
2018-08-30T07:50:47.683Z,18.66
2018-08-30T07:51:47.580Z,18.54
2018-08-30T07:52:47.493Z,18.50
2018-08-30T07:53:47.419Z,18.45
2018-08-30T07:54:47.348Z,18.47
2018-08-30T07:55:47.265Z,18.50
2018-08-30T07:56:47.179Z,18.35
2018-08-30T07:57:47.106Z,18.35
2018-08-30T07:58:47.021Z,18.36
2018-08-30T07:59:47.009Z,18.42
2018-08-30T08:00:46.874Z,18.42
2018-08-30T08:01:46.790Z,18.35
2018-08-30T08:02:46.707Z,18.35
2018-08-30T08:03:46.632Z,18.39
2018-08-30T08:04:46.549Z,18.42
2018-08-30T08:05:46.474Z,18.44
2018-08-30T08:06:46.395Z,18.33
2018-08-30T08:07:46.308Z,18.45
2018-08-30T08:08:46.231Z,18.41
2018-08-30T08:09:46.156Z,18.47
2018-08-30T08:10:46.075Z,18.44
2018-08-30T08:11:46.000Z,18.52
2018-08-30T08:12:45.929Z,18.55
2018-08-30T08:13:45.833Z,18.57
2018-08-30T08:14:45.763Z,18.62
2018-08-30T08:15:45.678Z,18.65
2018-08-30T08:16:45.597Z,18.65
2018-08-30T08:17:45.523Z,18.67
2018-08-30T08:18:45.431Z,18.70
2018-08-30T08:19:45.357Z,18.65
2018-08-30T08:20:45.287Z,18.70
2018-08-30T08:21:45.198Z,18.63
2018-08-30T08:22:45.131Z,18.67
2018-08-30T08:23:45.044Z,18.69
2018-08-30T08:24:45.006Z,18.63
2018-08-30T08:25:44.896Z,18.58
2018-08-30T08:26:44.814Z,18.65
2018-08-30T08:27:44.739Z,18.63
2018-08-30T08:28:44.646Z,18.54
2018-08-30T08:29:44.569Z,18.54
2018-08-30T08:30:44.498Z,18.51
2018-08-30T08:31:44.412Z,18.42
2018-08-30T08:32:44.341Z,18.39
2018-08-30T08:33:44.251Z,18.45
2018-08-30T08:34:44.173Z,18.37
2018-08-30T08:35:44.098Z,18.42
2018-08-30T08:36:44.016Z,18.35
2018-08-30T08:37:43.940Z,18.32
2018-08-30T08:38:43.861Z,18.33
2018-08-30T08:39:43.774Z,18.32
2018-08-30T08:40:43.695Z,18.21
2018-08-30T08:41:43.634Z,18.27
2018-08-30T08:42:43.538Z,18.18
2018-08-30T08:43:43.464Z,18.33
2018-08-30T08:44:43.387Z,18.39
2018-08-30T08:45:43.298Z,18.42
2018-08-30T08:46:43.229Z,18.51
2018-08-30T08:47:43.151Z,18.48
2018-08-30T08:48:43.064Z,18.54
2018-08-30T08:49:42.989Z,18.60
2018-08-30T08:50:42.898Z,18.58
2018-08-30T08:51:42.822Z,18.54
2018-08-30T08:52:42.753Z,18.66
2018-08-30T08:53:42.720Z,18.67
2018-08-30T08:54:42.588Z,18.75
2018-08-30T08:55:42.516Z,18.70
2018-08-30T08:56:42.424Z,18.72
2018-08-30T08:57:42.348Z,18.75
2018-08-30T08:58:42.306Z,18.84
2018-08-30T08:59:42.190Z,18.95
2018-08-30T09:00:42.117Z,19.14
2018-08-30T09:01:42.039Z,19.13
2018-08-30T09:02:41.954Z,19.28
2018-08-30T09:03:41.880Z,19.31
2018-08-30T09:04:41.805Z,19.33
2018-08-30T09:05:41.716Z,19.44
2018-08-30T09:06:41.636Z,19.47
2018-08-30T09:07:41.614Z,19.51
2018-08-30T09:08:41.479Z,19.50
2018-08-30T09:09:41.406Z,19.41
2018-08-30T09:10:41.324Z,19.22
2018-08-30T09:11:41.249Z,19.13
2018-08-30T09:12:41.166Z,18.91
2018-08-30T09:13:41.145Z,18.78
2018-08-30T09:14:41.020Z,18.73
2018-08-30T09:15:40.931Z,18.81
2018-08-30T09:16:40.849Z,18.75
2018-08-30T09:17:40.775Z,18.75
2018-08-30T09:18:40.692Z,18.73
2018-08-30T09:19:40.627Z,18.73
2018-08-30T09:20:40.545Z,18.78
2018-08-30T09:21:40.460Z,18.76
2018-08-30T09:22:40.392Z,18.84
2018-08-30T09:23:40.308Z,18.81
2018-08-30T09:24:40.232Z,18.81
2018-08-30T09:25:40.145Z,18.81
2018-08-30T09:26:40.109Z,18.76
2018-08-30T09:27:39.979Z,18.70
2018-08-30T09:28:39.903Z,18.73
2018-08-30T09:29:39.826Z,18.73
2018-08-30T09:30:39.756Z,18.78
2018-08-30T09:31:39.680Z,18.73
2018-08-30T09:32:39.592Z,18.82
2018-08-30T09:33:39.517Z,18.72
2018-08-30T09:34:39.432Z,18.76
2018-08-30T09:35:39.359Z,18.75
2018-08-30T09:36:39.281Z,18.87
2018-08-30T09:37:39.194Z,18.94
2018-08-30T09:38:39.116Z,18.94
2018-08-30T09:39:39.040Z,19.04
2018-08-30T09:40:38.956Z,19.06
2018-08-30T09:41:38.884Z,18.95
2018-08-30T09:42:38.802Z,18.84
2018-08-30T09:43:38.774Z,19.00
2018-08-30T09:44:38.643Z,18.92
2018-08-30T09:45:38.568Z,18.99
2018-08-30T09:46:38.484Z,18.99
2018-08-30T09:47:38.409Z,19.02
2018-08-30T09:48:38.328Z,19.04
2018-08-30T09:49:38.249Z,19.02
2018-08-30T09:50:38.170Z,19.06
2018-08-30T09:51:38.096Z,19.06
2018-08-30T09:52:38.009Z,19.04
2018-08-30T09:53:37.935Z,19.02
2018-08-30T09:54:37.855Z,19.13
2018-08-30T09:55:37.825Z,19.16
2018-08-30T09:56:37.727Z,19.18
2018-08-30T09:57:37.697Z,19.18
2018-08-30T09:58:37.549Z,19.13
2018-08-30T09:59:37.461Z,19.04
2018-08-30T10:00:37.383Z,19.06
2018-08-30T10:01:37.308Z,19.07
2018-08-30T10:02:37.218Z,19.00
2018-08-30T10:03:37.144Z,18.95
2018-08-30T10:04:37.124Z,18.99
2018-08-30T10:05:36.986Z,19.02
2018-08-30T10:06:36.907Z,19.02
2018-08-30T10:07:36.832Z,19.08
2018-08-30T10:08:36.743Z,19.00
2018-08-30T10:09:36.670Z,19.02
2018-08-30T10:10:36.598Z,18.98
2018-08-30T10:11:36.509Z,18.92
2018-08-30T10:12:36.455Z,18.84
2018-08-30T10:13:36.355Z,18.95
2018-08-30T10:14:36.274Z,18.94
2018-08-30T10:15:36.203Z,19.02
2018-08-30T10:16:36.125Z,19.16
2018-08-30T10:17:36.037Z,19.25
2018-08-30T10:18:35.971Z,19.22
2018-08-30T10:19:35.884Z,19.25
2018-08-30T10:20:35.799Z,19.32
2018-08-30T10:21:35.815Z,19.33
2018-08-30T10:22:35.645Z,19.40
2018-08-30T10:23:35.556Z,19.36
2018-08-30T10:24:35.487Z,19.37
2018-08-30T10:25:35.409Z,19.44
2018-08-30T10:26:35.326Z,19.37
2018-08-30T10:27:35.251Z,19.40
2018-08-30T10:28:35.173Z,19.37
2018-08-30T10:29:35.097Z,19.37
2018-08-30T10:30:35.013Z,19.43
2018-08-30T10:31:34.957Z,19.46
2018-08-30T10:32:34.861Z,19.41
2018-08-30T10:33:34.775Z,19.50
2018-08-30T10:34:34.696Z,19.44
2018-08-30T10:35:34.621Z,19.44
2018-08-30T10:36:34.541Z,19.37
2018-08-30T10:37:34.464Z,19.29
2018-08-30T10:38:34.388Z,19.26
2018-08-30T10:39:34.300Z,19.23
2018-08-30T10:40:34.222Z,19.13
2018-08-30T10:41:34.148Z,19.07
2018-08-30T10:42:34.063Z,19.10
2018-08-30T10:43:33.988Z,19.04
2018-08-30T10:44:33.908Z,19.04
2018-08-30T10:45:33.825Z,18.98
2018-08-30T10:46:33.751Z,18.94
2018-08-30T10:47:33.680Z,18.87
2018-08-30T10:48:33.592Z,18.91
2018-08-30T10:49:33.572Z,18.88
2018-08-30T10:50:33.438Z,18.84
2018-08-30T10:51:33.353Z,18.73
2018-08-30T10:52:33.278Z,18.73
2018-08-30T10:53:33.203Z,18.73
2018-08-30T10:54:33.110Z,18.82
2018-08-30T10:55:33.035Z,18.76
2018-08-30T10:56:32.962Z,18.88
2018-08-30T10:57:32.875Z,18.85
2018-08-30T10:58:32.805Z,18.95
2018-08-30T10:59:32.731Z,18.84
2018-08-30T11:00:32.636Z,18.91
2018-08-30T11:01:32.574Z,18.81
2018-08-30T11:02:32.490Z,18.87
2018-08-30T11:03:32.403Z,18.87
2018-08-30T11:04:32.331Z,18.85
2018-08-30T11:05:32.256Z,18.84
2018-08-30T11:06:32.167Z,18.87
2018-08-30T11:07:32.089Z,18.82
2018-08-30T11:08:32.015Z,18.87
2018-08-30T11:09:31.929Z,18.84
2018-08-30T11:10:31.850Z,18.84
2018-08-30T11:11:31.776Z,18.84
2018-08-30T11:12:31.689Z,18.87
2018-08-30T11:13:31.719Z,18.80
2018-08-30T11:14:31.543Z,18.82
2018-08-30T11:15:31.464Z,18.91
2018-08-30T11:16:31.378Z,18.88
2018-08-30T11:17:31.291Z,18.88
2018-08-30T11:18:31.222Z,18.87
2018-08-30T11:19:31.217Z,18.90
2018-08-30T11:20:31.112Z,18.81
2018-08-30T11:21:30.981Z,18.92
2018-08-30T11:22:30.902Z,19.02
2018-08-30T11:23:30.829Z,18.99
2018-08-30T11:24:30.755Z,19.00
2018-08-30T11:25:30.690Z,18.94
2018-08-30T11:26:30.580Z,19.10
2018-08-30T11:27:30.505Z,19.14
2018-08-30T11:28:30.430Z,19.16
2018-08-30T11:29:30.339Z,19.26
2018-08-30T11:30:30.269Z,19.39
2018-08-30T11:31:30.193Z,19.37
2018-08-30T11:32:30.103Z,19.46
2018-08-30T11:33:30.028Z,19.54
2018-08-30T11:34:29.968Z,19.65
2018-08-30T11:35:29.869Z,19.71
2018-08-30T11:36:29.797Z,19.81
2018-08-30T11:37:29.771Z,19.81
2018-08-30T11:38:29.631Z,19.86
2018-08-30T11:39:29.561Z,19.87
2018-08-30T11:40:29.482Z,19.81
2018-08-30T11:41:29.470Z,19.81
2018-08-30T11:42:29.328Z,19.81
2018-08-30T11:43:29.297Z,19.76
2018-08-30T11:44:29.161Z,19.92
2018-08-30T11:45:29.081Z,19.92
2018-08-30T11:46:29.011Z,19.94
2018-08-30T11:47:28.935Z,19.96
2018-08-30T11:48:28.844Z,19.91
2018-08-30T11:49:28.770Z,20.03
2018-08-30T11:50:28.705Z,20.01
2018-08-30T11:51:28.610Z,20.14
2018-08-30T11:52:28.585Z,20.13
2018-08-30T11:53:28.459Z,20.08
2018-08-30T11:54:28.383Z,20.01
2018-08-30T11:55:28.292Z,20.03
2018-08-30T11:56:28.223Z,20.02
2018-08-30T11:57:28.148Z,20.08
2018-08-30T11:58:28.058Z,19.95
2018-08-30T11:59:27.983Z,20.01
2018-08-30T12:00:27.905Z,19.96
2018-08-30T12:01:27.818Z,19.88
2018-08-30T12:02:27.746Z,19.77
2018-08-30T12:03:27.671Z,19.78
2018-08-30T12:04:27.597Z,19.80
2018-08-30T12:05:27.510Z,19.81
2018-08-30T12:06:27.435Z,19.88
2018-08-30T12:07:27.362Z,19.95
2018-08-30T12:08:27.339Z,19.87
2018-08-30T12:09:27.196Z,19.96
2018-08-30T12:10:27.251Z,19.92
2018-08-30T12:11:27.102Z,19.99
2018-08-30T12:12:26.964Z,19.96
2018-08-30T12:13:26.882Z,19.96
2018-08-30T12:14:26.812Z,19.99
2018-08-30T12:15:26.724Z,19.95
2018-08-30T12:16:26.651Z,20.03
2018-08-30T12:17:26.585Z,19.86
2018-08-30T12:18:26.496Z,19.83
2018-08-30T12:19:26.422Z,19.96
2018-08-30T12:20:26.368Z,19.92
2018-08-30T12:21:26.263Z,19.87
2018-08-30T12:22:26.173Z,19.83
2018-08-30T12:23:26.102Z,19.88
2018-08-30T12:24:26.020Z,19.74
2018-08-30T12:25:25.957Z,19.66
2018-08-30T12:26:25.862Z,19.51
2018-08-30T12:27:25.788Z,19.55
2018-08-30T12:28:25.784Z,19.51
2018-08-30T12:29:25.701Z,19.51
2018-08-30T12:30:25.589Z,19.46
2018-08-30T12:31:25.536Z,19.50
2018-08-30T12:32:25.459Z,19.46
2018-08-30T12:33:25.319Z,19.61
2018-08-30T12:34:25.235Z,19.54
2018-08-30T12:35:25.253Z,19.44
2018-08-30T12:36:25.141Z,19.43
2018-08-30T12:37:25.052Z,19.41
2018-08-30T12:38:24.967Z,19.41
2018-08-30T12:39:24.847Z,19.50
2018-08-30T12:40:24.859Z,19.41
2018-08-30T12:41:24.743Z,19.43
2018-08-30T12:42:24.617Z,19.46
2018-08-30T12:43:24.633Z,19.40
2018-08-30T12:44:24.457Z,19.40
2018-08-30T12:45:24.420Z,19.47
2018-08-30T12:46:24.340Z,19.44
2018-08-30T12:47:24.218Z,19.48
2018-08-30T12:48:24.171Z,19.44
2018-08-30T12:49:24.071Z,19.44
2018-08-30T12:50:24.124Z,19.32
2018-08-30T12:51:24.170Z,19.32